Terminal Aerodrome Forecast
Issued by NWS

Home | Current Version | Previous Version | Text Only | Print | Product List | Glossary On
Versions: 1 2 3 4 5 6 7 8 9 10 11 12 13 14 15 16 17 18 19
000
FTUS43 KIND 022000 AAA
TAFLAF
TAF AMD
KLAF 022016Z 0220/0318 04012KT P6SM SCT035 SCT050 BKN250
     FM030900 09006KT 6SM BR BKN030 BKN060
     FM031600 09007KT P6SM SCT035 BKN060=

USA.gov is the U.S. government's official web portal to all federal, state and local government web resources and services.